sensor_id;sensor_type;location;lat;lon;timestamp;pressure;altitude;pressure_sealevel;temperature;humidity
12203;BME280;6164;42.178;24.622;2023-07-13T00:02:08;99664.03;;;24.64;100.00
12203;BME280;6164;42.178;24.622;2023-07-13T00:04:36;99660.66;;;24.74;100.00
12203;BME280;6164;42.178;24.622;2023-07-13T00:07:03;99656.09;;;24.80;100.00
12203;BME280;6164;42.178;24.622;2023-07-13T00:09:29;99657.97;;;24.74;100.00
12203;BME280;6164;42.178;24.622;2023-07-13T00:11:56;99658.06;;;24.57;100.00
12203;BME280;6164;42.178;24.622;2023-07-13T00:14:23;99655.84;;;24.49;100.00
12203;BME280;6164;42.178;24.622;2023-07-13T00:16:50;99654.19;;;24.48;100.00
12203;BME280;6164;42.178;24.622;2023-07-13T00:19:17;99661.03;;;24.56;100.00
12203;BME280;6164;42.178;24.622;2023-07-13T00:21:45;99657.19;;;24.52;100.00
12203;BME280;6164;42.178;24.622;2023-07-13T00:24:12;99648.06;;;24.58;100.00
12203;BME280;6164;42.178;24.622;2023-07-13T00:26:39;99642.44;;;24.59;100.00
12203;BME280;6164;42.178;24.622;2023-07-13T00:29:05;99646.75;;;24.60;100.00
12203;BME280;6164;42.178;24.622;2023-07-13T00:31:33;99654.25;;;24.53;100.00
12203;BME280;6164;42.178;24.622;2023-07-13T00:34:00;99646.31;;;24.42;100.00
12203;BME280;6164;42.178;24.622;2023-07-13T00:36:27;99643.56;;;24.37;100.00
12203;BME280;6164;42.178;24.622;2023-07-13T00:38:55;99649.78;;;24.37;100.00
12203;BME280;6164;42.178;24.622;2023-07-13T00:41:21;99642.53;;;24.38;100.00
12203;BME280;6164;42.178;24.622;2023-07-13T00:43:48;99641.91;;;24.31;100.00
12203;BME280;6164;42.178;24.622;2023-07-13T00:46:16;99635.38;;;24.27;100.00
12203;BME280;6164;42.178;24.622;2023-07-13T00:48:43;99643.72;;;24.25;100.00
12203;BME280;6164;42.178;24.622;2023-07-13T00:51:11;99639.06;;;24.16;100.00
12203;BME280;6164;42.178;24.622;2023-07-13T00:53:38;99636.88;;;24.13;100.00
12203;BME280;6164;42.178;24.622;2023-07-13T00:56:06;99633.91;;;24.14;100.00
12203;BME280;6164;42.178;24.622;2023-07-13T00:58:33;99626.41;;;24.16;100.00
12203;BME280;6164;42.178;24.622;2023-07-13T01:00:59;99623.19;;;24.19;100.00
12203;BME280;6164;42.178;24.622;2023-07-13T01:03:26;99626.44;;;24.21;100.00
12203;BME280;6164;42.178;24.622;2023-07-13T01:05:52;99626.44;;;24.21;100.00
12203;BME280;6164;42.178;24.622;2023-07-13T01:08:19;99628.16;;;24.06;100.00
12203;BME280;6164;42.178;24.622;2023-07-13T01:10:52;99633.34;;;24.12;100.00
12203;BME280;6164;42.178;24.622;2023-07-13T01:13:20;99630.41;;;24.14;100.00
12203;BME280;6164;42.178;24.622;2023-07-13T01:15:48;99630.72;;;24.17;100.00
12203;BME280;6164;42.178;24.622;2023-07-13T01:18:17;99628.78;;;24.13;100.00
12203;BME280;6164;42.178;24.622;2023-07-13T01:20:51;99626.56;;;24.05;100.00
12203;BME280;6164;42.178;24.622;2023-07-13T01:23:19;99625.72;;;24.04;100.00
12203;BME280;6164;42.178;24.622;2023-07-13T01:25:45;99623.72;;;23.95;100.00
12203;BME280;6164;42.178;24.622;2023-07-13T01:28:12;99624.72;;;23.89;100.00
12203;BME280;6164;42.178;24.622;2023-07-13T01:30:39;99623.59;;;23.85;100.00
12203;BME280;6164;42.178;24.622;2023-07-13T01:33:06;99630.31;;;23.82;100.00
12203;BME280;6164;42.178;24.622;2023-07-13T01:35:33;99628.13;;;23.79;100.00
12203;BME280;6164;42.178;24.622;2023-07-13T01:38:00;99636.78;;;23.81;100.00
12203;BME280;6164;42.178;24.622;2023-07-13T01:40:28;99629.13;;;23.73;100.00
12203;BME280;6164;42.178;24.622;2023-07-13T01:42:54;99628.63;;;23.76;100.00
12203;BME280;6164;42.178;24.622;2023-07-13T01:45:21;99625.03;;;23.71;100.00
12203;BME280;6164;42.178;24.622;2023-07-13T01:47:47;99625.81;;;23.66;100.00
12203;BME280;6164;42.178;24.622;2023-07-13T01:50:14;99629.53;;;23.60;100.00
12203;BME280;6164;42.178;24.622;2023-07-13T01:52:40;99622.94;;;23.51;100.00
12203;BME280;6164;42.178;24.622;2023-07-13T01:55:08;99624.72;;;23.40;100.00
12203;BME280;6164;42.178;24.622;2023-07-13T01:57:35;99631.56;;;23.31;100.00
12203;BME280;6164;42.178;24.622;2023-07-13T02:00:02;99634.59;;;23.18;100.00
12203;BME280;6164;42.178;24.622;2023-07-13T02:02:29;99638.22;;;23.07;100.00
12203;BME280;6164;42.178;24.622;2023-07-13T02:04:56;99646.31;;;23.07;100.00
12203;BME280;6164;42.178;24.622;2023-07-13T02:07:23;99639.22;;;23.01;100.00
12203;BME280;6164;42.178;24.622;2023-07-13T02:09:49;99650.88;;;22.90;100.00
12203;BME280;6164;42.178;24.622;2023-07-13T02:12:17;99644.94;;;22.88;100.00
12203;BME280;6164;42.178;24.622;2023-07-13T02:14:43;99651.63;;;22.86;100.00
12203;BME280;6164;42.178;24.622;2023-07-13T02:17:10;99647.25;;;22.80;100.00
12203;BME280;6164;42.178;24.622;2023-07-13T02:19:37;99654.16;;;22.76;100.00
12203;BME280;6164;42.178;24.622;2023-07-13T02:22:03;99656.94;;;22.64;100.00
12203;BME280;6164;42.178;24.622;2023-07-13T02:24:30;99655.94;;;22.54;100.00
12203;BME280;6164;42.178;24.622;2023-07-13T02:26:56;99663.44;;;22.52;100.00
12203;BME280;6164;42.178;24.622;2023-07-13T02:29:24;99664.00;;;22.37;100.00
12203;BME280;6164;42.178;24.622;2023-07-13T02:31:51;99665.38;;;22.40;100.00
12203;BME280;6164;42.178;24.622;2023-07-13T02:34:17;99654.59;;;22.40;100.00
12203;BME280;6164;42.178;24.622;2023-07-13T02:36:44;99662.78;;;22.45;100.00
12203;BME280;6164;42.178;24.622;2023-07-13T02:39:11;99657.59;;;22.55;100.00
12203;BME280;6164;42.178;24.622;2023-07-13T02:41:38;99663.22;;;22.53;100.00
12203;BME280;6164;42.178;24.622;2023-07-13T02:44:04;99661.25;;;22.65;100.00
12203;BME280;6164;42.178;24.622;2023-07-13T02:46:35;99668.44;;;22.76;100.00
12203;BME280;6164;42.178;24.622;2023-07-13T02:49:02;99669.75;;;22.74;100.00
12203;BME280;6164;42.178;24.622;2023-07-13T02:51:28;99670.56;;;22.58;100.00
12203;BME280;6164;42.178;24.622;2023-07-13T02:53:55;99672.84;;;22.66;100.00
12203;BME280;6164;42.178;24.622;2023-07-13T02:56:22;99673.91;;;22.65;100.00
12203;BME280;6164;42.178;24.622;2023-07-13T02:58:48;99679.63;;;22.68;100.00
12203;BME280;6164;42.178;24.622;2023-07-13T03:01:15;99681.31;;;22.74;100.00
12203;BME280;6164;42.178;24.622;2023-07-13T03:03:45;99678.22;;;22.82;100.00
12203;BME280;6164;42.178;24.622;2023-07-13T03:06:12;99678.88;;;22.89;100.00
12203;BME280;6164;42.178;24.622;2023-07-13T03:08:39;99682.44;;;22.95;100.00
12203;BME280;6164;42.178;24.622;2023-07-13T03:11:06;99665.50;;;22.94;100.00
12203;BME280;6164;42.178;24.622;2023-07-13T03:13:33;99677.31;;;22.93;100.00
12203;BME280;6164;42.178;24.622;2023-07-13T03:16:00;99681.47;;;23.01;100.00
12203;BME280;6164;42.178;24.622;2023-07-13T03:18:26;99672.22;;;23.13;100.00
12203;BME280;6164;42.178;24.622;2023-07-13T03:20:55;99669.94;;;23.22;100.00
12203;BME280;6164;42.178;24.622;2023-07-13T03:23:21;99667.81;;;23.24;100.00
12203;BME280;6164;42.178;24.622;2023-07-13T03:25:48;99675.19;;;23.28;100.00
12203;BME280;6164;42.178;24.622;2023-07-13T03:28:15;99662.03;;;23.32;100.00
12203;BME280;6164;42.178;24.622;2023-07-13T03:30:41;99663.97;;;23.36;100.00
12203;BME280;6164;42.178;24.622;2023-07-13T03:33:08;99656.72;;;23.37;100.00
12203;BME280;6164;42.178;24.622;2023-07-13T03:35:34;99653.53;;;23.40;100.00
12203;BME280;6164;42.178;24.622;2023-07-13T03:38:02;99659.72;;;23.40;100.00
12203;BME280;6164;42.178;24.622;2023-07-13T03:40:29;99665.97;;;23.46;100.00
12203;BME280;6164;42.178;24.622;2023-07-13T03:42:56;99665.13;;;23.40;100.00
12203;BME280;6164;42.178;24.622;2023-07-13T03:45:22;99671.31;;;23.41;100.00
12203;BME280;6164;42.178;24.622;2023-07-13T03:47:48;99662.75;;;23.44;100.00
12203;BME280;6164;42.178;24.622;2023-07-13T03:50:15;99671.56;;;23.39;100.00
12203;BME280;6164;42.178;24.622;2023-07-13T03:52:41;99671.91;;;23.26;100.00
12203;BME280;6164;42.178;24.622;2023-07-13T03:55:10;99679.19;;;23.09;100.00
12203;BME280;6164;42.178;24.622;2023-07-13T03:57:36;99681.81;;;23.04;100.00
12203;BME280;6164;42.178;24.622;2023-07-13T04:00:03;99677.66;;;22.80;100.00
12203;BME280;6164;42.178;24.622;2023-07-13T04:02:31;99680.91;;;22.66;100.00
12203;BME280;6164;42.178;24.622;2023-07-13T04:04:57;99684.34;;;22.61;100.00
12203;BME280;6164;42.178;24.622;2023-07-13T04:07:24;99688.81;;;22.56;100.00
12203;BME280;6164;42.178;24.622;2023-07-13T04:09:50;99687.78;;;22.57;100.00
12203;BME280;6164;42.178;24.622;2023-07-13T04:12:18;99688.91;;;22.61;100.00
12203;BME280;6164;42.178;24.622;2023-07-13T04:14:44;99688.50;;;22.69;100.00
12203;BME280;6164;42.178;24.622;2023-07-13T04:17:11;99681.16;;;22.81;100.00
12203;BME280;6164;42.178;24.622;2023-07-13T04:19:37;99678.63;;;22.91;100.00
12203;BME280;6164;42.178;24.622;2023-07-13T04:22:04;99689.25;;;22.97;100.00
12203;BME280;6164;42.178;24.622;2023-07-13T04:24:31;99693.13;;;23.06;100.00
12203;BME280;6164;42.178;24.622;2023-07-13T04:26:57;99694.34;;;23.15;100.00
12203;BME280;6164;42.178;24.622;2023-07-13T04:29:26;99697.38;;;23.19;100.00
12203;BME280;6164;42.178;24.622;2023-07-13T04:31:52;99699.44;;;23.28;100.00
12203;BME280;6164;42.178;24.622;2023-07-13T04:34:19;99699.56;;;23.38;100.00
12203;BME280;6164;42.178;24.622;2023-07-13T04:36:45;99700.03;;;23.52;100.00
12203;BME280;6164;42.178;24.622;2023-07-13T04:39:11;99691.25;;;23.62;100.00
12203;BME280;6164;42.178;24.622;2023-07-13T04:41:38;99693.25;;;23.71;100.00
12203;BME280;6164;42.178;24.622;2023-07-13T04:44:04;99693.97;;;23.83;100.00
12203;BME280;6164;42.178;24.622;2023-07-13T04:46:32;99700.03;;;23.95;100.00
12203;BME280;6164;42.178;24.622;2023-07-13T04:48:59;99701.81;;;24.06;100.00
12203;BME280;6164;42.178;24.622;2023-07-13T04:51:25;99703.50;;;24.12;100.00
12203;BME280;6164;42.178;24.622;2023-07-13T04:53:52;99706.28;;;24.22;100.00
12203;BME280;6164;42.178;24.622;2023-07-13T04:56:19;99701.53;;;24.29;100.00
12203;BME280;6164;42.178;24.622;2023-07-13T04:58:45;99700.03;;;24.43;100.00
12203;BME280;6164;42.178;24.622;2023-07-13T05:01:12;99698.31;;;24.59;100.00
12203;BME280;6164;42.178;24.622;2023-07-13T05:03:40;99701.44;;;24.73;100.00
12203;BME280;6164;42.178;24.622;2023-07-13T05:06:07;99702.31;;;24.83;100.00
12203;BME280;6164;42.178;24.622;2023-07-13T05:08:35;99712.72;;;25.01;100.00
12203;BME280;6164;42.178;24.622;2023-07-13T05:11:02;99700.63;;;25.09;100.00
12203;BME280;6164;42.178;24.622;2023-07-13T05:13:29;99699.06;;;25.18;100.00
12203;BME280;6164;42.178;24.622;2023-07-13T05:15:56;99700.72;;;25.24;100.00
12203;BME280;6164;42.178;24.622;2023-07-13T05:18:24;99699.97;;;25.33;100.00
12203;BME280;6164;42.178;24.622;2023-07-13T05:20:58;99697.38;;;25.43;100.00
12203;BME280;6164;42.178;24.622;2023-07-13T05:23:25;99702.78;;;25.43;100.00
12203;BME280;6164;42.178;24.622;2023-07-13T05:25:52;99703.06;;;25.47;100.00
12203;BME280;6164;42.178;24.622;2023-07-13T05:28:18;99697.16;;;25.55;100.00
12203;BME280;6164;42.178;24.622;2023-07-13T05:30:45;99695.03;;;25.67;100.00
12203;BME280;6164;42.178;24.622;2023-07-13T05:33:11;99693.47;;;25.76;100.00
12203;BME280;6164;42.178;24.622;2023-07-13T05:35:38;99693.22;;;25.82;100.00
12203;BME280;6164;42.178;24.622;2023-07-13T05:38:06;99686.19;;;25.91;100.00
12203;BME280;6164;42.178;24.622;2023-07-13T05:40:33;99695.72;;;25.99;100.00
12203;BME280;6164;42.178;24.622;2023-07-13T05:42:59;99698.47;;;26.09;100.00
12203;BME280;6164;42.178;24.622;2023-07-13T05:45:26;99694.44;;;26.17;100.00
12203;BME280;6164;42.178;24.622;2023-07-13T05:47:52;99703.66;;;26.26;100.00
12203;BME280;6164;42.178;24.622;2023-07-13T05:50:19;99706.13;;;26.37;100.00
12203;BME280;6164;42.178;24.622;2023-07-13T05:52:46;99709.66;;;26.53;100.00
12203;BME280;6164;42.178;24.622;2023-07-13T05:55:14;99707.50;;;26.65;100.00
12203;BME280;6164;42.178;24.622;2023-07-13T05:57:40;99706.72;;;26.74;100.00
12203;BME280;6164;42.178;24.622;2023-07-13T06:00:07;99699.69;;;26.83;100.00
12203;BME280;6164;42.178;24.622;2023-07-13T06:02:35;99698.59;;;26.99;100.00
12203;BME280;6164;42.178;24.622;2023-07-13T06:05:01;99699.94;;;27.12;100.00
12203;BME280;6164;42.178;24.622;2023-07-13T06:07:28;99705.34;;;27.27;100.00
12203;BME280;6164;42.178;24.622;2023-07-13T06:09:54;99704.50;;;27.47;100.00
12203;BME280;6164;42.178;24.622;2023-07-13T06:12:22;99709.34;;;27.60;100.00
12203;BME280;6164;42.178;24.622;2023-07-13T06:14:49;99715.28;;;27.72;100.00
12203;BME280;6164;42.178;24.622;2023-07-13T06:17:15;99716.34;;;27.81;100.00
12203;BME280;6164;42.178;24.622;2023-07-13T06:19:42;99710.63;;;27.92;92.40
12203;BME280;6164;42.178;24.622;2023-07-13T06:22:08;99705.94;;;28.03;89.06
12203;BME280;6164;42.178;24.622;2023-07-13T06:24:34;99710.47;;;28.17;91.64
12203;BME280;6164;42.178;24.622;2023-07-13T06:27:01;99708.00;;;28.26;89.71
12203;BME280;6164;42.178;24.622;2023-07-13T06:29:29;99710.41;;;28.27;88.47
12203;BME280;6164;42.178;24.622;2023-07-13T06:31:56;99706.31;;;28.35;88.04
12203;BME280;6164;42.178;24.622;2023-07-13T06:34:23;99705.97;;;28.47;88.80
12203;BME280;6164;42.178;24.622;2023-07-13T06:36:49;99710.25;;;28.58;87.37
12203;BME280;6164;42.178;24.622;2023-07-13T06:39:16;99699.06;;;28.64;88.16
12203;BME280;6164;42.178;24.622;2023-07-13T06:41:42;99702.28;;;28.71;87.79
12203;BME280;6164;42.178;24.622;2023-07-13T06:44:09;99703.25;;;28.85;89.23
12203;BME280;6164;42.178;24.622;2023-07-13T06:46:36;99694.72;;;28.97;89.29
12203;BME280;6164;42.178;24.622;2023-07-13T06:49:03;99699.81;;;29.03;86.68
12203;BME280;6164;42.178;24.622;2023-07-13T06:51:29;99699.81;;;29.08;82.98
12203;BME280;6164;42.178;24.622;2023-07-13T06:53:56;99698.06;;;29.22;83.49
12203;BME280;6164;42.178;24.622;2023-07-13T06:56:22;99693.31;;;29.33;83.97
12203;BME280;6164;42.178;24.622;2023-07-13T06:58:49;99700.09;;;29.35;84.16
12203;BME280;6164;42.178;24.622;2023-07-13T07:01:15;99700.19;;;29.49;83.04
12203;BME280;6164;42.178;24.622;2023-07-13T07:03:43;99699.75;;;29.42;82.25
12203;BME280;6164;42.178;24.622;2023-07-13T07:06:12;99701.19;;;29.58;82.53
12203;BME280;6164;42.178;24.622;2023-07-13T07:08:39;99692.66;;;29.70;80.31
12203;BME280;6164;42.178;24.622;2023-07-13T07:11:05;99693.84;;;29.82;80.14
12203;BME280;6164;42.178;24.622;2023-07-13T07:13:32;99690.22;;;29.92;81.02
12203;BME280;6164;42.178;24.622;2023-07-13T07:15:58;99692.56;;;29.98;78.26
12203;BME280;6164;42.178;24.622;2023-07-13T07:18:25;99694.28;;;30.13;79.42
12203;BME280;6164;42.178;24.622;2023-07-13T07:20:53;99698.19;;;30.25;78.70
12203;BME280;6164;42.178;24.622;2023-07-13T07:23:20;99705.41;;;30.16;76.84
12203;BME280;6164;42.178;24.622;2023-07-13T07:25:46;99701.16;;;30.29;75.69
12203;BME280;6164;42.178;24.622;2023-07-13T07:28:14;99691.94;;;30.43;75.89
12203;BME280;6164;42.178;24.622;2023-07-13T07:30:43;99692.81;;;30.57;74.87
12203;BME280;6164;42.178;24.622;2023-07-13T07:33:09;99690.94;;;30.71;70.79
12203;BME280;6164;42.178;24.622;2023-07-13T07:35:36;99688.31;;;30.85;69.08
12203;BME280;6164;42.178;24.622;2023-07-13T07:38:04;99683.19;;;30.97;69.94
12203;BME280;6164;42.178;24.622;2023-07-13T07:40:30;99686.16;;;31.14;67.60
12203;BME280;6164;42.178;24.622;2023-07-13T07:42:58;99683.53;;;31.23;65.00
12203;BME280;6164;42.178;24.622;2023-07-13T07:45:26;99684.56;;;31.27;64.83
12203;BME280;6164;42.178;24.622;2023-07-13T07:47:53;99676.50;;;31.35;66.63
12203;BME280;6164;42.178;24.622;2023-07-13T07:50:20;99674.50;;;31.41;65.72
12203;BME280;6164;42.178;24.622;2023-07-13T07:52:46;99669.34;;;31.39;66.02
12203;BME280;6164;42.178;24.622;2023-07-13T07:55:14;99670.38;;;31.43;66.71
12203;BME280;6164;42.178;24.622;2023-07-13T07:57:40;99670.13;;;31.53;65.88
12203;BME280;6164;42.178;24.622;2023-07-13T08:00:07;99670.44;;;31.65;64.33
12203;BME280;6164;42.178;24.622;2023-07-13T08:02:34;99670.13;;;31.80;61.94
12203;BME280;6164;42.178;24.622;2023-07-13T08:05:00;99675.09;;;31.92;61.56
12203;BME280;6164;42.178;24.622;2023-07-13T08:07:27;99671.13;;;32.11;60.03
12203;BME280;6164;42.178;24.622;2023-07-13T08:09:53;99672.19;;;32.24;58.95
12203;BME280;6164;42.178;24.622;2023-07-13T08:12:21;99674.88;;;32.38;58.57
12203;BME280;6164;42.178;24.622;2023-07-13T08:14:49;99683.28;;;32.41;56.99
12203;BME280;6164;42.178;24.622;2023-07-13T08:17:18;99682.75;;;32.53;55.77
12203;BME280;6164;42.178;24.622;2023-07-13T08:19:45;99672.38;;;32.63;57.33
12203;BME280;6164;42.178;24.622;2023-07-13T08:22:11;99686.00;;;32.77;53.89
12203;BME280;6164;42.178;24.622;2023-07-13T08:24:38;99672.53;;;32.89;56.57
12203;BME280;6164;42.178;24.622;2023-07-13T08:27:04;99663.28;;;32.98;55.71
12203;BME280;6164;42.178;24.622;2023-07-13T08:29:32;99687.03;;;33.11;51.87
12203;BME280;6164;42.178;24.622;2023-07-13T08:31:59;99689.16;;;33.23;50.39
12203;BME280;6164;42.178;24.622;2023-07-13T08:34:25;99679.09;;;33.32;51.70
12203;BME280;6164;42.178;24.622;2023-07-13T08:36:52;99683.78;;;33.40;49.54
12203;BME280;6164;42.178;24.622;2023-07-13T08:39:18;99676.31;;;33.54;50.69
12203;BME280;6164;42.178;24.622;2023-07-13T08:41:45;99702.94;;;33.71;46.06
12203;BME280;6164;42.178;24.622;2023-07-13T08:44:16;99701.84;;;33.80;46.47
12203;BME280;6164;42.178;24.622;2023-07-13T08:46:46;99696.56;;;33.92;45.03
12203;BME280;6164;42.178;24.622;2023-07-13T08:49:15;99701.13;;;34.05;44.46
12203;BME280;6164;42.178;24.622;2023-07-13T08:51:42;99709.50;;;34.09;44.19
12203;BME280;6164;42.178;24.622;2023-07-13T08:54:12;99699.19;;;34.14;43.98
12203;BME280;6164;42.178;24.622;2023-07-13T08:56:40;99695.66;;;34.31;44.58
12203;BME280;6164;42.178;24.622;2023-07-13T08:59:11;99708.44;;;34.52;43.42
12203;BME280;6164;42.178;24.622;2023-07-13T09:01:45;99693.75;;;34.66;44.77
12203;BME280;6164;42.178;24.622;2023-07-13T09:04:18;99717.13;;;34.80;42.37
12203;BME280;6164;42.178;24.622;2023-07-13T09:06:49;99722.31;;;34.99;41.14
12203;BME280;6164;42.178;24.622;2023-07-13T09:09:20;99719.72;;;35.11;41.65
12203;BME280;6164;42.178;24.622;2023-07-13T09:11:52;99706.09;;;35.23;42.17
12203;BME280;6164;42.178;24.622;2023-07-13T09:14:29;99738.41;;;35.17;40.16
12203;BME280;6164;42.178;24.622;2023-07-13T09:16:58;99705.75;;;35.33;41.91
12203;BME280;6164;42.178;24.622;2023-07-13T09:19:27;99723.50;;;35.44;39.36
12203;BME280;6164;42.178;24.622;2023-07-13T09:21:54;99709.69;;;35.61;40.25
12203;BME280;6164;42.178;24.622;2023-07-13T09:24:28;99712.94;;;35.63;39.91
12203;BME280;6164;42.178;24.622;2023-07-13T09:26:55;99683.59;;;35.75;41.20
12203;BME280;6164;42.178;24.622;2023-07-13T09:29:26;99691.81;;;35.84;39.90
12203;BME280;6164;42.178;24.622;2023-07-13T09:31:53;99717.53;;;35.88;38.40
12203;BME280;6164;42.178;24.622;2023-07-13T09:34:20;99712.75;;;35.97;38.87
12203;BME280;6164;42.178;24.622;2023-07-13T09:36:48;99718.03;;;36.11;37.62
12203;BME280;6164;42.178;24.622;2023-07-13T09:39:18;99709.53;;;36.24;38.96
12203;BME280;6164;42.178;24.622;2023-07-13T09:41:49;99710.44;;;36.28;37.74
12203;BME280;6164;42.178;24.622;2023-07-13T09:44:18;99727.25;;;36.35;35.89
12203;BME280;6164;42.178;24.622;2023-07-13T09:46:54;99703.38;;;36.48;36.92
12203;BME280;6164;42.178;24.622;2023-07-13T09:49:23;99710.44;;;36.57;36.93
12203;BME280;6164;42.178;24.622;2023-07-13T09:51:57;99717.44;;;36.67;36.32
12203;BME280;6164;42.178;24.622;2023-07-13T09:54:24;99739.59;;;36.70;34.59
12203;BME280;6164;42.178;24.622;2023-07-13T09:56:54;99738.91;;;36.73;35.50
12203;BME280;6164;42.178;24.622;2023-07-13T09:59:21;99688.09;;;36.91;38.03
12203;BME280;6164;42.178;24.622;2023-07-13T10:01:49;99693.53;;;37.12;37.06
12203;BME280;6164;42.178;24.622;2023-07-13T10:04:17;99711.97;;;37.32;35.17
12203;BME280;6164;42.178;24.622;2023-07-13T10:06:44;99719.88;;;37.34;35.63
12203;BME280;6164;42.178;24.622;2023-07-13T10:09:14;99709.13;;;37.53;35.52
12203;BME280;6164;42.178;24.622;2023-07-13T10:11:41;99754.81;;;37.66;32.79
12203;BME280;6164;42.178;24.622;2023-07-13T10:14:10;99764.03;;;37.82;32.97
12203;BME280;6164;42.178;24.622;2023-07-13T10:16:37;99805.63;;;37.89;31.00
12203;BME280;6164;42.178;24.622;2023-07-13T10:19:05;99798.84;;;37.98;31.54
12203;BME280;6164;42.178;24.622;2023-07-13T10:21:34;99836.72;;;37.89;30.43
12203;BME280;6164;42.178;24.622;2023-07-13T10:24:04;99838.25;;;37.99;31.25
12203;BME280;6164;42.178;24.622;2023-07-13T10:26:34;99839.72;;;37.84;31.31
12203;BME280;6164;42.178;24.622;2023-07-13T10:29:02;99859.34;;;37.83;30.73
12203;BME280;6164;42.178;24.622;2023-07-13T10:31:30;99840.53;;;37.85;31.16
12203;BME280;6164;42.178;24.622;2023-07-13T10:33:57;99833.41;;;37.84;30.79
12203;BME280;6164;42.178;24.622;2023-07-13T10:36:28;99850.41;;;37.74;30.26
12203;BME280;6164;42.178;24.622;2023-07-13T10:38:55;99835.69;;;37.70;30.01
12203;BME280;6164;42.178;24.622;2023-07-13T10:41:24;99828.16;;;37.91;30.88
12203;BME280;6164;42.178;24.622;2023-07-13T10:43:54;99836.63;;;37.98;29.87
12203;BME280;6164;42.178;24.622;2023-07-13T10:46:22;99848.59;;;38.02;29.69
12203;BME280;6164;42.178;24.622;2023-07-13T10:48:52;99876.72;;;38.07;28.44
12203;BME280;6164;42.178;24.622;2023-07-13T10:51:21;99853.75;;;38.03;30.22
12203;BME280;6164;42.178;24.622;2023-07-13T10:53:48;99869.31;;;38.20;28.86
12203;BME280;6164;42.178;24.622;2023-07-13T10:56:34;99886.72;;;38.00;29.02
12203;BME280;6164;42.178;24.622;2023-07-13T10:59:11;99893.16;;;37.92;28.12
12203;BME280;6164;42.178;24.622;2023-07-13T11:01:40;99881.22;;;38.12;28.78
12203;BME280;6164;42.178;24.622;2023-07-13T11:04:12;99880.09;;;38.37;28.74
12203;BME280;6164;42.178;24.622;2023-07-13T11:06:40;99892.66;;;38.59;28.42
12203;BME280;6164;42.178;24.622;2023-07-13T11:09:24;99886.53;;;38.77;28.59
12203;BME280;6164;42.178;24.622;2023-07-13T11:11:56;99872.22;;;39.11;28.45
12203;BME280;6164;42.178;24.622;2023-07-13T11:14:34;99893.16;;;39.12;28.00
12203;BME280;6164;42.178;24.622;2023-07-13T11:19:44;99917.94;;;39.36;28.03
12203;BME280;6164;42.178;24.622;2023-07-13T11:22:21;99906.41;;;39.47;27.93
12203;BME280;6164;42.178;24.622;2023-07-13T11:24:52;99910.72;;;39.60;27.56
12203;BME280;6164;42.178;24.622;2023-07-13T11:27:33;99859.84;;;39.76;29.55
12203;BME280;6164;42.178;24.622;2023-07-13T11:30:14;99883.16;;;39.91;28.00
12203;BME280;6164;42.178;24.622;2023-07-13T11:32:45;99853.00;;;40.17;28.12
12203;BME280;6164;42.178;24.622;2023-07-13T11:35:17;99860.88;;;40.30;27.90
12203;BME280;6164;42.178;24.622;2023-07-13T11:37:45;99882.00;;;40.38;27.46
12203;BME280;6164;42.178;24.622;2023-07-13T11:40:12;99917.34;;;40.45;26.27
12203;BME280;6164;42.178;24.622;2023-07-13T11:42:39;99917.06;;;40.50;26.82
12203;BME280;6164;42.178;24.622;2023-07-13T11:45:14;99913.06;;;40.47;26.82
12203;BME280;6164;42.178;24.622;2023-07-13T11:47:45;99911.63;;;40.69;27.38
12203;BME280;6164;42.178;24.622;2023-07-13T11:50:17;99944.03;;;40.69;25.58
12203;BME280;6164;42.178;24.622;2023-07-13T11:52:44;99962.00;;;40.59;25.26
12203;BME280;6164;42.178;24.622;2023-07-13T11:55:13;99951.66;;;40.40;25.98
12203;BME280;6164;42.178;24.622;2023-07-13T11:57:41;99953.59;;;40.55;25.67
12203;BME280;6164;42.178;24.622;2023-07-13T12:00:11;99939.34;;;40.38;26.19
12203;BME280;6164;42.178;24.622;2023-07-13T12:02:42;99927.72;;;40.48;26.60
12203;BME280;6164;42.178;24.622;2023-07-13T12:05:10;99935.19;;;40.63;25.84
12203;BME280;6164;42.178;24.622;2023-07-13T12:07:37;99925.16;;;40.90;26.13
12203;BME280;6164;42.178;24.622;2023-07-13T12:10:10;99936.41;;;41.12;25.40
12203;BME280;6164;42.178;24.622;2023-07-13T12:12:46;99928.66;;;41.40;25.42
12203;BME280;6164;42.178;24.622;2023-07-13T12:15:13;99955.41;;;41.52;24.85
12203;BME280;6164;42.178;24.622;2023-07-13T12:17:40;99943.38;;;41.60;25.28
12203;BME280;6164;42.178;24.622;2023-07-13T12:20:14;99932.75;;;41.85;25.18
12203;BME280;6164;42.178;24.622;2023-07-13T12:22:45;99964.53;;;41.52;24.81
12203;BME280;6164;42.178;24.622;2023-07-13T12:25:12;99956.59;;;41.70;24.79
12203;BME280;6164;42.178;24.622;2023-07-13T12:27:39;99944.50;;;41.78;25.04
12203;BME280;6164;42.178;24.622;2023-07-13T12:30:20;99944.31;;;41.90;24.91
12203;BME280;6164;42.178;24.622;2023-07-13T12:32:55;99958.56;;;42.08;24.59
12203;BME280;6164;42.178;24.622;2023-07-13T12:35:23;99967.50;;;41.98;24.38
12203;BME280;6164;42.178;24.622;2023-07-13T12:37:50;99976.59;;;41.98;24.05
12203;BME280;6164;42.178;24.622;2023-07-13T12:40:18;99958.94;;;42.06;25.01
12203;BME280;6164;42.178;24.622;2023-07-13T12:42:46;99960.06;;;42.24;24.25
12203;BME280;6164;42.178;24.622;2023-07-13T12:45:16;99971.84;;;42.40;23.75
12203;BME280;6164;42.178;24.622;2023-07-13T12:47:46;99969.34;;;42.58;23.95
12203;BME280;6164;42.178;24.622;2023-07-13T12:50:14;99975.19;;;42.75;23.58
12203;BME280;6164;42.178;24.622;2023-07-13T12:52:42;99970.69;;;42.90;24.35
12203;BME280;6164;42.178;24.622;2023-07-13T12:55:11;99986.66;;;42.96;23.33
12203;BME280;6164;42.178;24.622;2023-07-13T12:57:40;99989.63;;;43.11;23.40
12203;BME280;6164;42.178;24.622;2023-07-13T13:02:57;100060.38;;;42.90;21.99
12203;BME280;6164;42.178;24.622;2023-07-13T13:05:28;100076.81;;;42.76;21.26